sensor_id;sensor_type;location;lat;lon;timestamp;pressure;altitude;pressure_sealevel;temperature;humidity
44127;BME280;29786;50.798;7.302;2023-07-13T00:04:50;99200;;;16.86;74.34
44127;BME280;29786;50.798;7.302;2023-07-13T00:11:01;99200;;;16.85;75.48
44127;BME280;29786;50.798;7.302;2023-07-13T00:15:57;99210;;;16.83;75.54
44127;BME280;29786;50.798;7.302;2023-07-13T00:25:50;99210;;;16.92;74.41
44127;BME280;29786;50.798;7.302;2023-07-13T00:30:46;99210;;;16.89;74.1
44127;BME280;29786;50.798;7.302;2023-07-13T00:36:57;99200;;;16.81;74.7
44127;BME280;29786;50.798;7.302;2023-07-13T00:41:53;99190;;;16.62;75.99
44127;BME280;29786;50.798;7.302;2023-07-13T00:46:50;99190;;;16.54;76.87
44127;BME280;29786;50.798;7.302;2023-07-13T00:51:51;99180;;;16.52;78.15
44127;BME280;29786;50.798;7.302;2023-07-13T00:57:57;99180;;;16.54;77.58
44127;BME280;29786;50.798;7.302;2023-07-13T01:02:54;99180;;;16.52;78.14
44127;BME280;29786;50.798;7.302;2023-07-13T01:07:51;99180;;;16.74;76.99
44127;BME280;29786;50.798;7.302;2023-07-13T01:12:47;99190;;;16.49;78.7
44127;BME280;29786;50.798;7.302;2023-07-13T01:18:58;99190;;;16.52;78.63
44127;BME280;29786;50.798;7.302;2023-07-13T01:23:54;99190;;;16.42;79.41
44127;BME280;29786;50.798;7.302;2023-07-13T01:28:51;99190;;;16.32;80.57
44127;BME280;29786;50.798;7.302;2023-07-13T01:33:47;99190;;;16.33;80.31
44127;BME280;29786;50.798;7.302;2023-07-13T01:39:58;99190;;;16.25;81.37
44127;BME280;29786;50.798;7.302;2023-07-13T01:44:54;99190;;;16.15;82.82
44127;BME280;29786;50.798;7.302;2023-07-13T01:49:51;99190;;;16.17;82.57
44127;BME280;29786;50.798;7.302;2023-07-13T01:54:47;99190;;;16.19;82.85
44127;BME280;29786;50.798;7.302;2023-07-13T02:00:58;99190;;;16.29;82.46
44127;BME280;29786;50.798;7.302;2023-07-13T02:05:55;99190;;;16.21;83.49
44127;BME280;29786;50.798;7.302;2023-07-13T02:10:51;99190;;;16.16;84.34
44127;BME280;29786;50.798;7.302;2023-07-13T02:15:50;99190;;;16.15;84.6
44127;BME280;29786;50.798;7.302;2023-07-13T02:21:58;99190;;;15.96;86.97
44127;BME280;29786;50.798;7.302;2023-07-13T02:26:55;99180;;;16.2;85.46
44127;BME280;29786;50.798;7.302;2023-07-13T02:31:51;99190;;;16.19;85.45
44127;BME280;29786;50.798;7.302;2023-07-13T02:36:48;99200;;;16.07;86.61
44127;BME280;29786;50.798;7.302;2023-07-13T02:42:59;99200;;;16.14;86.76
44127;BME280;29786;50.798;7.302;2023-07-13T02:47:55;99200;;;16.29;85.73
44127;BME280;29786;50.798;7.302;2023-07-13T02:52:52;99200;;;16.2;86.18
44127;BME280;29786;50.798;7.302;2023-07-13T02:57:48;99200;;;16.19;86.17
44127;BME280;29786;50.798;7.302;2023-07-13T03:03:59;99200;;;16.1;88.13
44127;BME280;29786;50.798;7.302;2023-07-13T03:08:55;99200;;;16.1;87.88
44127;BME280;29786;50.798;7.302;2023-07-13T03:13:52;99200;;;15.95;89.01
44127;BME280;29786;50.798;7.302;2023-07-13T03:18:49;99200;;;15.95;89.19
44127;BME280;29786;50.798;7.302;2023-07-13T03:24:59;99220;;;15.96;89.13
44127;BME280;29786;50.798;7.302;2023-07-13T03:29:56;99220;;;15.87;89.35
44127;BME280;29786;50.798;7.302;2023-07-13T03:34:52;99220;;;15.82;90
44127;BME280;29786;50.798;7.302;2023-07-13T03:39:50;99220;;;15.75;89.79
44127;BME280;29786;50.798;7.302;2023-07-13T03:45:59;99230;;;15.66;91.21
44127;BME280;29786;50.798;7.302;2023-07-13T03:50:56;99230;;;15.73;90.88
44127;BME280;29786;50.798;7.302;2023-07-13T03:55:53;99210;;;15.66;90.47
44127;BME280;29786;50.798;7.302;2023-07-13T04:00:49;99230;;;15.95;89.54
44127;BME280;29786;50.798;7.302;2023-07-13T04:07:00;99240;;;15.92;89.57
44127;BME280;29786;50.798;7.302;2023-07-13T04:11:56;99240;;;15.95;90.46
44127;BME280;29786;50.798;7.302;2023-07-13T04:16:53;99220;;;15.71;91.3
44127;BME280;29786;50.798;7.302;2023-07-13T04:21:49;99240;;;15.73;94.33
44127;BME280;29786;50.798;7.302;2023-07-13T04:26:46;99240;;;15.65;95.98
44127;BME280;29786;50.798;7.302;2023-07-13T04:32:56;99240;;;15.7;95.69
44127;BME280;29786;50.798;7.302;2023-07-13T04:37:53;99220;;;15.57;96.16
44127;BME280;29786;50.798;7.302;2023-07-13T04:42:49;99250;;;15.87;96.16
44127;BME280;29786;50.798;7.302;2023-07-13T04:47:46;99240;;;15.91;96.97
44127;BME280;29786;50.798;7.302;2023-07-13T04:53:57;99250;;;15.88;97.75
44127;BME280;29786;50.798;7.302;2023-07-13T05:03:50;99260;;;16;97.6
44127;BME280;29786;50.798;7.302;2023-07-13T05:08:46;99270;;;16.09;95.41
44127;BME280;29786;50.798;7.302;2023-07-13T05:14:57;99270;;;15.98;97.28
44127;BME280;29786;50.798;7.302;2023-07-13T05:19:54;99280;;;16.11;97.95
44127;BME280;29786;50.798;7.302;2023-07-13T05:24:50;99270;;;16.27;97.03
44127;BME280;29786;50.798;7.302;2023-07-13T05:29:47;99280;;;16.53;93.45
44127;BME280;29786;50.798;7.302;2023-07-13T05:35:57;99290;;;16.45;95.85
44127;BME280;29786;50.798;7.302;2023-07-13T05:40:54;99290;;;16.76;95.53
44127;BME280;29786;50.798;7.302;2023-07-13T05:45:54;99290;;;16.87;92.82
44127;BME280;29786;50.798;7.302;2023-07-13T05:50:48;99300;;;16.92;90.94
44127;BME280;29786;50.798;7.302;2023-07-13T05:56:58;99300;;;17.24;90.51
44127;BME280;29786;50.798;7.302;2023-07-13T06:01:54;99300;;;17.36;88.28
44127;BME280;29786;50.798;7.302;2023-07-13T06:06:51;99320;;;17.56;86.99
44127;BME280;29786;50.798;7.302;2023-07-13T06:11:47;99320;;;17.65;85.66
44127;BME280;29786;50.798;7.302;2023-07-13T06:17:58;99320;;;17.9;85.15
44127;BME280;29786;50.798;7.302;2023-07-13T06:22:54;99330;;;18.19;82.86
44127;BME280;29786;50.798;7.302;2023-07-13T06:27:51;99320;;;17.96;84.4
44127;BME280;29786;50.798;7.302;2023-07-13T06:32:49;99330;;;18;85.55
44127;BME280;29786;50.798;7.302;2023-07-13T06:38:58;99330;;;18.54;82.82
44127;BME280;29786;50.798;7.302;2023-07-13T06:43:55;99330;;;18.14;85.07
44127;BME280;29786;50.798;7.302;2023-07-13T06:53:48;99330;;;18.11;82.94
44127;BME280;29786;50.798;7.302;2023-07-13T06:59:58;99330;;;18.31;85.7
44127;BME280;29786;50.798;7.302;2023-07-13T07:04:55;99340;;;18.23;83.58
44127;BME280;29786;50.798;7.302;2023-07-13T07:09:51;99340;;;18.23;83.19
44127;BME280;29786;50.798;7.302;2023-07-13T07:14:48;99340;;;18.36;83.4
44127;BME280;29786;50.798;7.302;2023-07-13T07:20:59;99350;;;18.68;79.93
44127;BME280;29786;50.798;7.302;2023-07-13T07:25:55;99350;;;18.95;77.63
44127;BME280;29786;50.798;7.302;2023-07-13T07:30:52;99350;;;19.23;79.21
44127;BME280;29786;50.798;7.302;2023-07-13T07:35:48;99340;;;19.48;75.41
44127;BME280;29786;50.798;7.302;2023-07-13T07:41:59;99340;;;19.44;75.4
44127;BME280;29786;50.798;7.302;2023-07-13T07:46:55;99340;;;19.54;75.41
44127;BME280;29786;50.798;7.302;2023-07-13T07:51:52;99350;;;19.37;74.1
44127;BME280;29786;50.798;7.302;2023-07-13T07:56:49;99340;;;19.11;77.38
44127;BME280;29786;50.798;7.302;2023-07-13T08:02:59;99350;;;19.51;74.54
44127;BME280;29786;50.798;7.302;2023-07-13T08:07:56;99340;;;19.59;72.8
44127;BME280;29786;50.798;7.302;2023-07-13T08:12:52;99350;;;19.24;74.58
44127;BME280;29786;50.798;7.302;2023-07-13T08:17:49;99350;;;19.39;74.23
44127;BME280;29786;50.798;7.302;2023-07-13T08:23:59;99350;;;19.07;76.33
44127;BME280;29786;50.798;7.302;2023-07-13T08:28:56;99340;;;19.46;75.12
44127;BME280;29786;50.798;7.302;2023-07-13T08:33:52;99320;;;19.81;71.32
44127;BME280;29786;50.798;7.302;2023-07-13T08:38:49;99340;;;20.31;68.43
44127;BME280;29786;50.798;7.302;2023-07-13T08:43:47;99340;;;20.28;70.12
44127;BME280;29786;50.798;7.302;2023-07-13T08:49:56;99330;;;20.41;68.33
44127;BME280;29786;50.798;7.302;2023-07-13T08:54:53;99310;;;20.45;65.49
44127;BME280;29786;50.798;7.302;2023-07-13T08:59:49;99330;;;21.35;63.71
44127;BME280;29786;50.798;7.302;2023-07-13T09:04:48;99330;;;21.75;60.54
44127;BME280;29786;50.798;7.302;2023-07-13T09:10:59;99340;;;21;63.23
44127;BME280;29786;50.798;7.302;2023-07-13T09:15:53;99310;;;21.75;60.19
44127;BME280;29786;50.798;7.302;2023-07-13T09:20:52;99330;;;21.73;61.89
44127;BME280;29786;50.798;7.302;2023-07-13T09:25:48;99330;;;22.07;61.07
44127;BME280;29786;50.798;7.302;2023-07-13T09:31:57;99330;;;21.88;58.61
44127;BME280;29786;50.798;7.302;2023-07-13T09:42:07;99330;;;22.16;57.09
44127;BME280;29786;50.798;7.302;2023-07-13T09:48:05;99330;;;22.28;57.1
44127;BME280;29786;50.798;7.302;2023-07-13T09:52:57;99330;;;22.27;58.49
44127;BME280;29786;50.798;7.302;2023-07-13T09:57:54;99330;;;22.73;56.43
44127;BME280;29786;50.798;7.302;2023-07-13T10:03:24;99330;;;22.22;55.82
44127;BME280;29786;50.798;7.302;2023-07-13T10:13:58;99340;;;23.83;54.88
44127;BME280;29786;50.798;7.302;2023-07-13T10:18:56;99330;;;23.71;53.7
44127;BME280;29786;50.798;7.302;2023-07-13T10:23:51;99340;;;22.31;57.77
44127;BME280;29786;50.798;7.302;2023-07-13T10:28:47;99340;;;22.42;57.24
44127;BME280;29786;50.798;7.302;2023-07-13T10:34:57;99340;;;23.28;55.16
44127;BME280;29786;50.798;7.302;2023-07-13T10:39:55;99340;;;23.6;55.87
44127;BME280;29786;50.798;7.302;2023-07-13T10:44:51;99340;;;23.1;53.82
44127;BME280;29786;50.798;7.302;2023-07-13T10:49:53;99360;;;22.34;56.72
44127;BME280;29786;50.798;7.302;2023-07-13T10:55:59;99360;;;21.92;59.65
44127;BME280;29786;50.798;7.302;2023-07-13T11:01:14;99360;;;22.01;58.73
44127;BME280;29786;50.798;7.302;2023-07-13T11:05:51;99370;;;22.6;57.12
44127;BME280;29786;50.798;7.302;2023-07-13T11:10:50;99370;;;23.04;57.69
44127;BME280;29786;50.798;7.302;2023-07-13T11:16:58;99370;;;22.97;57.23
44127;BME280;29786;50.798;7.302;2023-07-13T11:22:11;99370;;;22.89;56.35
44127;BME280;29786;50.798;7.302;2023-07-13T11:26:51;99360;;;22.79;54.33
44127;BME280;29786;50.798;7.302;2023-07-13T11:31:56;99370;;;22.36;57.17
44127;BME280;29786;50.798;7.302;2023-07-13T11:37:58;99370;;;22.22;58.18
44127;BME280;29786;50.798;7.302;2023-07-13T11:42:59;99370;;;21.92;57.96
44127;BME280;29786;50.798;7.302;2023-07-13T11:47:52;99360;;;21.95;56.8
44127;BME280;29786;50.798;7.302;2023-07-13T11:52:48;99370;;;22.21;55.74
44127;BME280;29786;50.798;7.302;2023-07-13T11:59:02;99360;;;22.54;53.56
44127;BME280;29786;50.798;7.302;2023-07-13T12:03:55;99370;;;22.42;52.9
44127;BME280;29786;50.798;7.302;2023-07-13T12:08:52;99370;;;22.57;50.06
44127;BME280;29786;50.798;7.302;2023-07-13T12:13:48;99370;;;22.09;50.87
44127;BME280;29786;50.798;7.302;2023-07-13T12:19:59;99370;;;22.13;50.69
44127;BME280;29786;50.798;7.302;2023-07-13T12:24:55;99370;;;22.15;50.31
44127;BME280;29786;50.798;7.302;2023-07-13T12:29:58;99380;;;22.11;50.93
44127;BME280;29786;50.798;7.302;2023-07-13T12:34:53;99380;;;21.93;50.46
44127;BME280;29786;50.798;7.302;2023-07-13T12:39:53;99380;;;22.37;49.87
44127;BME280;29786;50.798;7.302;2023-07-13T12:44:50;99390;;;22.66;49.18
44127;BME280;29786;50.798;7.302;2023-07-13T12:49:49;99390;;;22.28;51.09
44127;BME280;29786;50.798;7.302;2023-07-13T12:55:59;99400;;;21.43;55.83
44127;BME280;29786;50.798;7.302;2023-07-13T13:00:54;99400;;;21.62;56.99
44127;BME280;29786;50.798;7.302;2023-07-13T13:05:56;99400;;;22;54.4
44127;BME280;29786;50.798;7.302;2023-07-13T13:16:57;99400;;;23.06;50.97
44127;BME280;29786;50.798;7.302;2023-07-13T13:21:54;99400;;;23.29;50.77
44127;BME280;29786;50.798;7.302;2023-07-13T13:26:51;99410;;;22.64;50.81
44127;BME280;29786;50.798;7.302;2023-07-13T13:31:47;99400;;;23.35;49.71
44127;BME280;29786;50.798;7.302;2023-07-13T13:37:57;99400;;;23.44;49.33
44127;BME280;29786;50.798;7.302;2023-07-13T13:42:54;99400;;;23.11;48.45
44127;BME280;29786;50.798;7.302;2023-07-13T13:47:50;99400;;;23.66;48.38
44127;BME280;29786;50.798;7.302;2023-07-13T13:52:47;99400;;;23.8;46.75
44127;BME280;29786;50.798;7.302;2023-07-13T13:58:58;99390;;;23.81;46.55
44127;BME280;29786;50.798;7.302;2023-07-13T14:03:54;99380;;;25.19;44.28
44127;BME280;29786;50.798;7.302;2023-07-13T14:08:51;99380;;;27.89;39.98
44127;BME280;29786;50.798;7.302;2023-07-13T14:13:48;99380;;;27.79;38.49
44127;BME280;29786;50.798;7.302;2023-07-13T14:19:58;99380;;;26.22;41.44
44127;BME280;29786;50.798;7.302;2023-07-13T14:24:55;99380;;;25.28;42.83
44127;BME280;29786;50.798;7.302;2023-07-13T14:29:51;99360;;;24.9;44.07
44127;BME280;29786;50.798;7.302;2023-07-13T14:40:58;99370;;;24.94;42.57
44127;BME280;29786;50.798;7.302;2023-07-13T14:45:55;99360;;;26.2;41.74
44127;BME280;29786;50.798;7.302;2023-07-13T14:50:53;99370;;;25.32;42.71
44127;BME280;29786;50.798;7.302;2023-07-13T14:55:48;99350;;;26.4;40.64
44127;BME280;29786;50.798;7.302;2023-07-13T15:01:58;99370;;;24.82;42.46
44127;BME280;29786;50.798;7.302;2023-07-13T15:06:57;99360;;;25.67;40.64
44127;BME280;29786;50.798;7.302;2023-07-13T15:11:52;99340;;;27.86;37.39
44127;BME280;29786;50.798;7.302;2023-07-13T15:16:49;99350;;;27.56;37.9
44127;BME280;29786;50.798;7.302;2023-07-13T15:22:59;99360;;;26.75;37.83
44127;BME280;29786;50.798;7.302;2023-07-13T15:27:56;99360;;;25.62;39.91
44127;BME280;29786;50.798;7.302;2023-07-13T15:32:52;99360;;;28.58;35.69
44127;BME280;29786;50.798;7.302;2023-07-13T15:37:48;99370;;;29.58;34.57
44127;BME280;29786;50.798;7.302;2023-07-13T15:43:59;99350;;;27.36;37
44127;BME280;29786;50.798;7.302;2023-07-13T15:48:56;99350;;;25.11;40.92
44127;BME280;29786;50.798;7.302;2023-07-13T15:53:53;99350;;;23.82;42.72
44127;BME280;29786;50.798;7.302;2023-07-13T15:58:49;99340;;;26.67;39.14
44127;BME280;29786;50.798;7.302;2023-07-13T16:04:59;99340;;;28.88;35.47
44127;BME280;29786;50.798;7.302;2023-07-13T16:09:56;99340;;;29.6;33.5
44127;BME280;29786;50.798;7.302;2023-07-13T16:14:53;99340;;;28.33;35.79
44127;BME280;29786;50.798;7.302;2023-07-13T16:19:49;99340;;;28.12;35.98
44127;BME280;29786;50.798;7.302;2023-07-13T16:26:00;99340;;;28.34;36.42
44127;BME280;29786;50.798;7.302;2023-07-13T16:30:56;99340;;;29.05;35.16
44127;BME280;29786;50.798;7.302;2023-07-13T16:35:53;99330;;;26.59;38.22
44127;BME280;29786;50.798;7.302;2023-07-13T16:40:49;99330;;;25.67;40.08
44127;BME280;29786;50.798;7.302;2023-07-13T16:47:00;99350;;;23.56;45.17
44127;BME280;29786;50.798;7.302;2023-07-13T16:51:57;99350;;;23.15;46.83
44127;BME280;29786;50.798;7.302;2023-07-13T16:56:53;99330;;;22.38;48.93
44127;BME280;29786;50.798;7.302;2023-07-13T17:01:49;99360;;;21.76;52.54
44127;BME280;29786;50.798;7.302;2023-07-13T17:06:46;99370;;;21.35;56.19
44127;BME280;29786;50.798;7.302;2023-07-13T17:12:57;99380;;;20.96;60.98
44127;BME280;29786;50.798;7.302;2023-07-13T17:17:53;99350;;;20.66;64.82
44127;BME280;29786;50.798;7.302;2023-07-13T17:22:50;99390;;;21.04;66.58
44127;BME280;29786;50.798;7.302;2023-07-13T17:27:47;99380;;;21.54;64.95
44127;BME280;29786;50.798;7.302;2023-07-13T17:33:57;99390;;;22.19;62.61
44127;BME280;29786;50.798;7.302;2023-07-13T17:38:53;99390;;;22.11;62.09
44127;BME280;29786;50.798;7.302;2023-07-13T17:43:50;99400;;;21.26;66.18
44127;BME280;29786;50.798;7.302;2023-07-13T17:48:47;99400;;;20.95;66.31
44127;BME280;29786;50.798;7.302;2023-07-13T17:54:59;99400;;;21.02;65.98
44127;BME280;29786;50.798;7.302;2023-07-13T17:59:54;99390;;;21.12;65.79
44127;BME280;29786;50.798;7.302;2023-07-13T18:04:50;99390;;;21.15;66.41
44127;BME280;29786;50.798;7.302;2023-07-13T18:09:47;99400;;;20.84;68.76
44127;BME280;29786;50.798;7.302;2023-07-13T18:15:57;99400;;;20.8;68.73
44127;BME280;29786;50.798;7.302;2023-07-13T18:20:54;99400;;;20.63;70.59
44127;BME280;29786;50.798;7.302;2023-07-13T18:25:51;99410;;;20.36;71.39
44127;BME280;29786;50.798;7.302;2023-07-13T18:30:51;99410;;;20.37;71.53
44127;BME280;29786;50.798;7.302;2023-07-13T18:36:58;99420;;;20.37;73.24
44127;BME280;29786;50.798;7.302;2023-07-13T18:41:54;99420;;;20.24;74.5
44127;BME280;29786;50.798;7.302;2023-07-13T18:46:51;99430;;;20.29;73.58
44127;BME280;29786;50.798;7.302;2023-07-13T18:51:47;99430;;;20.21;72.31
44127;BME280;29786;50.798;7.302;2023-07-13T18:57:58;99430;;;20.19;73.27
44127;BME280;29786;50.798;7.302;2023-07-13T19:02:55;99430;;;20.2;74.24
44127;BME280;29786;50.798;7.302;2023-07-13T19:07:51;99440;;;20.36;73.53
44127;BME280;29786;50.798;7.302;2023-07-13T19:18:58;99440;;;20.03;74.22
44127;BME280;29786;50.798;7.302;2023-07-13T19:23:55;99450;;;19.92;73.88
44127;BME280;29786;50.798;7.302;2023-07-13T19:28:52;99450;;;20.04;74.27
44127;BME280;29786;50.798;7.302;2023-07-13T19:33:48;99460;;;19.61;77.03
44127;BME280;29786;50.798;7.302;2023-07-13T19:39:59;99460;;;19.58;79.37
44127;BME280;29786;50.798;7.302;2023-07-13T19:44:56;99460;;;19.51;81.46
44127;BME280;29786;50.798;7.302;2023-07-13T19:49:52;99470;;;19.45;81.9
44127;BME280;29786;50.798;7.302;2023-07-13T19:54:49;99470;;;19.5;82.26
44127;BME280;29786;50.798;7.302;2023-07-13T20:00:59;99480;;;19.34;85.25
44127;BME280;29786;50.798;7.302;2023-07-13T20:05:55;99490;;;19.43;84.83
44127;BME280;29786;50.798;7.302;2023-07-13T20:10:52;99490;;;19.29;85.15
44127;BME280;29786;50.798;7.302;2023-07-13T20:15:48;99490;;;19.26;83.95
44127;BME280;29786;50.798;7.302;2023-07-13T20:21:59;99490;;;19.15;85.17
44127;BME280;29786;50.798;7.302;2023-07-13T20:26:56;99490;;;19.01;88.19
44127;BME280;29786;50.798;7.302;2023-07-13T20:31:52;99490;;;18.79;90.33
44127;BME280;29786;50.798;7.302;2023-07-13T20:36:49;99480;;;18.83;90.89
44127;BME280;29786;50.798;7.302;2023-07-13T20:42:59;99480;;;18.85;88.33
44127;BME280;29786;50.798;7.302;2023-07-13T20:47:58;99480;;;18.86;88.05
44127;BME280;29786;50.798;7.302;2023-07-13T20:52:54;99480;;;18.76;87.88
44127;BME280;29786;50.798;7.302;2023-07-13T20:57:49;99490;;;18.71;88.46
44127;BME280;29786;50.798;7.302;2023-07-13T21:04:00;99500;;;19.17;82.31
44127;BME280;29786;50.798;7.302;2023-07-13T21:08:56;99500;;;18.69;87.94
44127;BME280;29786;50.798;7.302;2023-07-13T21:13:53;99480;;;18.7;84.34
44127;BME280;29786;50.798;7.302;2023-07-13T21:18:49;99490;;;18.74;85.56
44127;BME280;29786;50.798;7.302;2023-07-13T21:25:00;99490;;;18.7;84.01
44127;BME280;29786;50.798;7.302;2023-07-13T21:29:56;99490;;;18.54;86.14
44127;BME280;29786;50.798;7.302;2023-07-13T21:34:53;99480;;;18.26;88.98
44127;BME280;29786;50.798;7.302;2023-07-13T21:39:51;99500;;;18.23;90.82
44127;BME280;29786;50.798;7.302;2023-07-13T21:44:46;99500;;;18.12;92.58
44127;BME280;29786;50.798;7.302;2023-07-13T21:50:57;99510;;;18.08;93.45
44127;BME280;29786;50.798;7.302;2023-07-13T21:55:54;99500;;;17.94;93.01
44127;BME280;29786;50.798;7.302;2023-07-13T22:00:50;99510;;;18.2;91.32
44127;BME280;29786;50.798;7.302;2023-07-13T22:05:47;99510;;;18.12;93.11
44127;BME280;29786;50.798;7.302;2023-07-13T22:13:04;99510;;;18.21;91.69
44127;BME280;29786;50.798;7.302;2023-07-13T22:21:50;99500;;;17.62;96.85
44127;BME280;29786;50.798;7.302;2023-07-13T22:26:47;99500;;;17.62;97.71
44127;BME280;29786;50.798;7.302;2023-07-13T22:33:10;99500;;;17.84;96.3
44127;BME280;29786;50.798;7.302;2023-07-13T22:37:54;99490;;;17.87;95.91
44127;BME280;29786;50.798;7.302;2023-07-13T22:42:52;99500;;;17.77;99.75
44127;BME280;29786;50.798;7.302;2023-07-13T22:47:48;99500;;;17.74;100
44127;BME280;29786;50.798;7.302;2023-07-13T22:53:58;99500;;;17.59;100
44127;BME280;29786;50.798;7.302;2023-07-13T22:58:54;99500;;;17.37;100
44127;BME280;29786;50.798;7.302;2023-07-13T23:03:51;99500;;;17.41;100
44127;BME280;29786;50.798;7.302;2023-07-13T23:08:48;99490;;;17.37;100
44127;BME280;29786;50.798;7.302;2023-07-13T23:14:58;99490;;;17.46;100
44127;BME280;29786;50.798;7.302;2023-07-13T23:19:54;99480;;;17.4;100
44127;BME280;29786;50.798;7.302;2023-07-13T23:24:51;99480;;;17.37;100
44127;BME280;29786;50.798;7.302;2023-07-13T23:29:49;99480;;;17.37;100
44127;BME280;29786;50.798;7.302;2023-07-13T23:35:58;99480;;;17.2;100
44127;BME280;29786;50.798;7.302;2023-07-13T23:40:56;99470;;;17.24;100
44127;BME280;29786;50.798;7.302;2023-07-13T23:45:51;99470;;;17.04;100
44127;BME280;29786;50.798;7.302;2023-07-13T23:50:48;99460;;;17.21;100
44127;BME280;29786;50.798;7.302;2023-07-13T23:56:59;99450;;;17.09;100
